METAR Data
IDs: Format: Raw Decoded Include TAF

Data at: 1815 UTC 21 Sep 2018

KBAZ 211751Z 19009KT 10SM FEW034 30/23 A2994 RMK AO2 SLP129 60000 T03000233 10300 20256 58003
KBAZ 211651Z 20013KT 10SM BKN025 29/24 A2996 RMK AO2 SLP136 T02890239
KBAZ 211628Z 19014KT 10SM SCT019 SCT025 29/24 A2996 RMK AO2 T02890239
KBAZ 211551Z 17009KT 10SM SCT017 BKN025 28/24 A2996 RMK AO2 SLP137 T02830244
KBAZ 211538Z 18010KT 10SM SCT017 BKN023 BKN033 28/24 A2996 RMK AO2 T02830244
KBAZ 211509Z 17010KT 6SM BR BKN014 28/24 A2995 RMK AO2 T02780244
KBAZ 211458Z 18011KT 6SM BR SCT014 BKN019 27/24 A2995 RMK AO2 T02720244
KBAZ 211451Z 18014KT 6SM BR BKN012 BKN019 27/24 A2995 RMK AO2 SLP132 60000 T02720244 51013
KBAZ 211413Z 17010KT 6SM BR BKN010 BKN015 27/25 A2995 RMK AO2 CIG 007V012 T02670250
KBAZ 211351Z 17009KT 10SM BKN009 27/25 A2994 RMK AO2 RAE1252 SLP129 P0000 T02670250
KBAZ 211336Z 17008KT 10SM BKN008 BKN013 26/25 A2993 RMK AO2 RAE1252 P0000 T02610250
KBAZ 211304Z 16008KT 9SM BKN012 BKN017 BKN022 26/24 A2993 RMK AO2 RAE1252 P0000 T02560244
KBAZ 211251Z 16008KT 10SM -RA SCT012 BKN018 BKN026 26/24 A2992 RMK AO2 RAB39 SLP124 P0000 T02560244
KBAZ 211229Z 16008KT 10SM SCT010 BKN018 26/24 A2992 RMK AO2 T02560244
KBAZ 211214Z 16007KT 10SM BKN010 BKN017 26/24 A2991 RMK AO2 T02560244
KBAZ 211151Z 16008KT 10SM SCT010 BKN016 BKN022 26/24 A2991 RMK AO2 SLP119 70040 T02560244 10256 20256 55001
KBAZ 211058Z AUTO 16007KT 10SM SCT012 BKN021 BKN027 26/24 A2991 RMK AO2 T02560244
KBAZ 211051Z AUTO 16008KT 10SM SCT012 SCT023 BKN031 26/24 A2991 RMK AO2 SLP119 T02560244
KBAZ 211009Z AUTO 16007KT 10SM SCT012 BKN021 OVC028 26/24 A2991 RMK AO2 T02560244
KBAZ 210951Z AUTO 17006KT 10SM BKN012 BKN021 OVC029 26/24 A2991 RMK AO2 SLP119 T02560244
KBAZ 210851Z AUTO 17007KT 10SM BKN013 OVC024 26/24 A2991 RMK AO2 SLP120 T02560244 58005
KBAZ 210751Z AUTO 17010KT 10SM BKN013 OVC024 26/24 A2992 RMK AO2 SLP122 T02560244
KBAZ 210735Z AUTO 17008KT 10SM SCT011 BKN016 OVC050 26/24 A2992 RMK AO2 T02560244
KBAZ 210651Z AUTO 16009KT 10SM OVC010 26/24 A2993 RMK AO2 CIG 008V013 SLP125 T02560244
KBAZ 210638Z AUTO 17008KT 10SM OVC010 26/24 A2993 RMK AO2 CIG 007V015 T02560244
KBAZ 210551Z AUTO 15005KT 10SM BKN009 BKN013 OVC044 26/24 A2993 RMK AO2 CIG 007V011 SLP125 60008 T02560244 10256 20250 403170233 58004
KBAZ 210528Z AUTO 15006KT 10SM SCT009 BKN013 BKN046 25/24 A2993 RMK AO2 T02500244
KBAZ 210451Z AUTO 14006KT 10SM BKN010 25/24 A2994 RMK AO2 CIG 007V013 SLP128 T02500239
KBAZ 210449Z AUTO 14007KT 10SM BKN012 25/24 A2994 RMK AO2
KBAZ 210405Z AUTO 13007KT 10SM FEW012 SCT110 26/24 A2994 RMK AO2 T02560244
KBAZ 210351Z AUTO 14008KT 10SM FEW008 BKN012 26/24 A2994 RMK AO2 RAE16 TSE03 SLP130 P0000 T02560244
KBAZ 210342Z AUTO 13008KT 10SM SCT008 OVC014 26/24 A2995 RMK AO2 RAE16 TSE03 P0000 T02560244
KBAZ 210333Z AUTO 14006KT 10SM BKN007 OVC012 26/24 A2994 RMK AO2 RAE16 TSE03 CIG 006V010 P0000 T02560244
KBAZ 210309Z AUTO 13005KT 10SM -RA BKN008 OVC100 26/24 A2993 RMK AO2 TSE03 CIG 006V013 P0000 T02560244
KBAZ 210254Z AUTO 13006KT 9SM -TSRA BKN008 BKN065 OVC100 26/24 A2994 RMK AO2 P0000 T02560244
KBAZ 210251Z AUTO 13006KT 9SM -TSRA SCT010 SCT065 OVC100 26/24 A2993 RMK AO2 RAB14 TSB18E33B41 SLP127 P0008 60008 T02560244 53008
KBAZ 210247Z AUTO 13007KT 8SM -TSRA FEW012 BKN090 OVC110 26/24 A2993 RMK AO2 RAB14 TSB18E33B41 P0007
KBAZ 210237Z AUTO 14006KT 5SM VCTS RA BR SCT009 BKN065 OVC100 25/24 A2992 RMK AO2 RAB14 TSB18E33 P0006 T02500244
KBAZ 210223Z AUTO 14008KT 5SM -TSRA BR BKN009 BKN120 25/24 A2992 RMK AO2 RAB14 TSB18 CIG 006V016 P0002 T02500244
KBAZ 210208Z AUTO 13008KT 10SM VCTS OVC007 25/24 A2991 RMK AO2 LTG DSNT SW T02500239
KBAZ 210151Z AUTO 11005KT 10SM VCTS BKN008 BKN039 BKN060 25/24 A2991 RMK AO2 SLP119 T02500239
KBAZ 210147Z AUTO 11005KT 10SM BKN009 BKN060 25/24 A2991 RMK AO2
KBAZ 210140Z AUTO 11005KT 10SM SCT009 BKN060 25/23 A2991 RMK AO2 T02500233
KBAZ 210051Z AUTO 12007KT 10SM SCT029 25/23 A2989 RMK AO2 SLP114 T02500233
KBAZ 202351Z AUTO 13008KT 10SM SCT055 26/23 A2989 RMK AO2 SLP112 60032 T02560233 10317 20233 58003
KBAZ 202251Z 12008KT 10SM BKN075 OVC095 26/23 A2989 RMK AO2 RAE44 SLP113 P0000 T02560233
KBAZ 202151Z 09006KT 10SM -RA BKN032 BKN043 OVC050 24/23 A2990 RMK AO2 LTG DSNT N AND NE TSE07 SLP116 P0025 T02440228
KBAZ 202144Z 10007KT 10SM -RA SCT032 BKN046 OVC110 24/22 A2989 RMK AO2 LTG DSNT N AND NE TSE07 P0025 T02440222
KBAZ 202126Z VRB03KT 6SM VCTS -RA BR SCT045 BKN090 OVC110 24/22 A2989 RMK AO2 LTG DSNT NW-NE TSE07 P0024 T02390222
KBAZ 202116Z 00000KT 2SM VCTS RA BR FEW024 BKN045 OVC100 23/22 A2990 RMK AO2 LTG DSNT N AND NE TSE07 P0023 T02330222
KBAZ 202107Z 21005KT 1 1/2SM RA BR FEW026 BKN040 OVC080 23/22 A2989 RMK AO2 TSE07 P0020 T02330222
KBAZ 202058Z 20009KT 1SM +TSRA BR SCT025 BKN039 OVC050 23/22 A2990 RMK AO2 LTG DSNT S P0015 T02330222
KBAZ 202056Z 21014G28KT 1 1/2SM TSRA BR SCT027 BKN040 OVC050 24/22 A2990 RMK AO2 LTG DSNT E AND S P0011 T02390222
KBAZ 202051Z 21017G29KT 9SM -TSRA SCT027 BKN040 BKN049 25/22 A2990 RMK AO2 PK WND 18031/2039 LTG DSNT E-S RAB51 TSB49 PRESRR SLP116 P0000 60007 T02500217 55014
KBAZ 202042Z 18025G31KT 10SM VCTS SCT038 BKN044 BKN090 29/21 A2987 RMK AO2 PK WND 18031/2039 LTG DSNT SE AND S T02890211
KBAZ 201951Z VRB03KT 10SM SCT045 29/24 A2988 RMK AO2 LTG DSNT N RAB1852E37 SLP111 P0007 T02940244
KBAZ 201915Z 24005KT 10SM -RA FEW043 SCT090 BKN110 25/22 A2991 RMK AO2 LTG DSNT N AND NW RAB1852 P0007 T02500222
KBAZ 201908Z 26003KT 2 1/2SM -RA FEW040 SCT055 BKN110 24/22 A2992 RMK AO2 LTG DSNT N AND NW RAB1852 P0006 T02440217
KBAZ 201851Z 24013G19KT 10SM FEW035 SCT048 BKN120 27/21 A2992 RMK AO2 LTG DSNT NW SLP123 T02720211
KBAZ 201844Z 20010KT 10SM FEW035 SCT120 30/22 A2992 RMK AO2 T03000217
KBAZ 201826Z 18011G16KT 10SM VCTS FEW033 31/22 A2993 RMK AO2 LTG DSNT SW T03060222
KBAZ 201751Z 19009KT 10SM SCT031 BKN039 30/23 A2994 RMK AO2 LTG DSNT N SLP128 T03000228 10311 20250 58007
KBAZ 201651Z 17010KT 10SM SCT021 SCT026 29/23 A2996 RMK AO2 SLP137 T02940233
KBAZ 201616Z 16011KT 10SM BKN017 BKN024 29/24 A2997 RMK AO2 T02890239
KBAZ 201551Z 16010KT 10SM SCT014 28/24 A2997 RMK AO2 SLP139 T02830239
KBAZ 201451Z 16007KT 10SM BKN009 BKN013 27/24 A2996 RMK AO2 LTG DSNT E CIG 006V011 SLP136 T02670244 52010
KBAZ 201443Z 16007KT 10SM SCT009 BKN014 OVC019 27/24 A2996 RMK AO2 T02670244
KBAZ 201433Z 15005KT 10SM BKN009 BKN013 OVC019 26/24 A2996 RMK AO2 T02610244
KBAZ 201426Z 15005KT 10SM SCT010 BKN013 BKN020 26/24 A2996 RMK AO2 T02610244
KBAZ 201358Z 14004KT 9SM FEW007 SCT011 BKN016 26/24 A2995 RMK AO2 T02560244
KBAZ 201351Z 14004KT 9SM SCT007 BKN014 26/24 A2995 RMK AO2 SLP134 T02560244
KBAZ 201334Z 14004KT 8SM FEW007 BKN011 BKN023 25/24 A2994 RMK AO2 LTG DSNT W T02500239
KBAZ 201311Z 15006KT 8SM BKN007 BKN011 25/24 A2994 RMK AO2 LTG DSNT SW AND W CIG 004V009 T02500239
KBAZ 201251Z 14005KT 6SM BR BKN008 OVC014 25/24 A2993 RMK AO2 LTG DSNT SW CIG 004V011 SLP127 T02500239
KBAZ 201234Z 15004KT 6SM BR BKN008 OVC015 25/24 A2993 RMK AO2 LTG DSNT SW CIG 006V011 T02500239
KBAZ 201218Z 15005KT 6SM BR BKN007 25/24 A2993 RMK AO2 CIG 006V011 T02500239
KBAZ 201201Z 15007KT 5SM BR OVC009 26/24 A2993 RMK AO2 CIG 007V013 T02560239
KBAZ 201151Z 16005KT 10SM OVC009 26/24 A2993 RMK AO2 CIG 006V013 SLP124 T02560239 10256 20244 53002
KBAZ 201111Z AUTO 17005KT 10SM BKN009 OVC016 26/24 A2993 RMK AO2 CIG 006V012 T02560239
KBAZ 201051Z AUTO 16005KT 10SM BKN010 OVC017 25/24 A2992 RMK AO2 LTG DSNT SW CIG 007V013 SLP121 T02500239
KBAZ 200951Z AUTO 00000KT 10SM OVC008 25/24 A2992 RMK AO2 SLP123 T02500239
KBAZ 200907Z AUTO 15004KT 10SM BKN009 25/23 A2992 RMK AO2 T02500233
KBAZ 200858Z AUTO 16005KT 10SM SCT009 25/23 A2992 RMK AO2 T02500233
KBAZ 200851Z AUTO 15005KT 10SM BKN009 25/23 A2992 RMK AO2 SLP123 T02500233 58008
KBAZ 200751Z AUTO 17004KT 10SM BKN009 25/23 A2994 RMK AO2 SLP127 T02500233
KBAZ 200740Z AUTO 16004KT 10SM BKN010 25/23 A2994 RMK AO2 T02500233
KBAZ 200651Z AUTO 18004KT 10SM CLR 24/23 A2995 RMK AO2 SLP131 T02440228